Time;durP1;ratioP1;P1;durP2;ratioP2;P2;SDS_P1;SDS_P2;PMS_P1;PMS_P2;Temp;Humidity;BMP_temperature;BMP_pressure;BME280_temperature;BME280_humidity;BME280_pressure;Samples;Min_cycle;Max_cycle;Signal;HPM_P1;HPM_P2
2023/08/06 00:01:59;;;;;;;13.60;12.20;;;;;;;11.94;100.00;95156.25;7402011;19;20420;-91
2023/08/06 00:04:26;;;;;;;12.20;11.10;;;;;;;12.31;100.00;95207.34;7404329;19;20384;-91
2023/08/06 00:06:54;;;;;;;10.60;9.70;;;;;;;13.05;100.00;95317.88;7400149;19;20396;-91
2023/08/06 00:09:21;;;;;;;11.57;10.37;;;;;;;12.15;100.00;95188.25;7412860;19;20385;-91
2023/08/06 00:11:48;;;;;;;12.03;11.00;;;;;;;11.70;100.00;95104.53;7416813;19;20440;-92
2023/08/06 00:14:17;;;;;;;14.00;12.40;;;;;;;12.55;100.00;95234.44;7426438;19;20365;-91
2023/08/06 00:16:45;;;;;;;13.33;12.03;;;;;;;12.38;100.00;95196.81;7425673;19;20401;-91
2023/08/06 00:19:15;;;;;;;13.03;11.87;;;;;;;11.43;100.00;95058.88;7428029;19;20384;-91
2023/08/06 00:21:42;;;;;;;13.70;12.40;;;;;;;12.35;100.00;95180.88;7426914;19;20404;-91
2023/08/06 00:24:09;;;;;;;14.03;12.73;;;;;;;12.38;100.00;95183.56;7430326;19;20393;-92
2023/08/06 00:26:45;;;;;;;15.03;12.33;;;;;;;13.31;100.00;95328.34;7427333;19;20413;-92
2023/08/06 00:29:12;;;;;;;14.37;12.97;;;;;;;11.62;100.00;95079.88;7431323;19;20392;-92
2023/08/06 00:31:40;;;;;;;14.87;13.57;;;;;;;12.34;100.00;95189.94;7428167;19;20418;-91
2023/08/06 00:34:07;;;;;;;15.00;13.43;;;;;;;12.48;100.00;95213.94;7428081;19;20381;-90
2023/08/06 00:36:34;;;;;;;15.57;13.93;;;;;;;13.03;100.00;95297.00;7416702;19;20904;-90
2023/08/06 00:39:02;;;;;;;13.33;12.23;;;;;;;11.95;100.00;95149.84;7409015;19;20384;-91
2023/08/06 00:41:29;;;;;;;13.53;12.33;;;;;;;13.49;100.00;95363.03;7400411;19;20502;-91
2023/08/06 00:43:56;;;;;;;11.90;10.77;;;;;;;11.93;100.00;95104.41;7406802;19;20464;-91
2023/08/06 00:46:24;;;;;;;12.53;11.20;;;;;;;12.58;100.00;95204.56;7402292;19;20389;-91
2023/08/06 00:48:52;;;;;;;9.80;8.77;;;;;;;12.00;100.00;95123.00;7397845;19;20856;-91
2023/08/06 00:51:20;;;;;;;9.47;8.67;;;;;;;12.01;100.00;95116.59;7395174;19;20396;-91
2023/08/06 00:53:49;;;;;;;9.97;9.17;;;;;;;12.71;100.00;95242.94;7396819;19;20381;-91
2023/08/06 00:56:17;;;;;;;9.47;8.57;;;;;;;11.97;100.00;95142.28;7398001;19;20400;-91
2023/08/06 00:58:45;;;;;;;9.57;8.77;;;;;;;12.58;100.00;95234.50;7396282;19;20380;-91
2023/08/06 01:01:12;;;;;;;8.43;7.73;;;;;;;12.16;100.00;95189.78;7398536;19;20413;-91
2023/08/06 01:03:39;;;;;;;6.60;5.47;;;;;;;11.67;100.00;95140.44;7397713;19;20924;-91
2023/08/06 01:06:07;;;;;;;6.30;5.70;;;;;;;12.17;100.00;95235.59;7399306;19;20731;-91
2023/08/06 01:08:52;;;;;;;5.13;4.73;;;;;;;13.05;100.00;95378.91;7397602;19;20392;-90
2023/08/06 01:11:29;;;;;;;7.10;5.83;;;;;;;12.93;100.00;95379.91;7399672;19;20393;-91
2023/08/06 01:14:13;;;;;;;5.60;5.10;;;;;;;11.93;100.00;95250.09;7395139;19;20382;-91
2023/08/06 01:16:40;;;;;;;6.00;5.50;;;;;;;12.45;100.00;95328.66;7393948;19;20392;-91
2023/08/06 01:19:21;;;;;;;7.63;6.07;;;;;;;12.77;100.00;95374.06;7395160;19;20380;-91
2023/08/06 01:21:48;;;;;;;5.03;4.60;;;;;;;12.27;100.00;95307.25;7396127;19;20412;-91
2023/08/06 01:24:16;;;;;;;11.07;5.40;;;;;;;12.30;100.00;95311.09;7396412;19;20388;-91
2023/08/06 01:26:54;;;;;;;5.90;5.40;;;;;;;12.35;100.00;95300.91;7394708;19;20777;-91
2023/08/06 01:29:47;;;;;;;7.23;6.53;;;;;;;12.75;100.00;95354.34;7401228;19;20360;-91
2023/08/06 01:32:16;;;;;;;6.10;5.50;;;;;;;12.35;100.00;95298.25;7398748;19;20412;-92
2023/08/06 01:34:47;;;;;;;5.67;5.17;;;;;;;12.45;100.00;95309.34;7400763;19;20415;-92
2023/08/06 01:37:17;;;;;;;5.57;5.07;;;;;;;11.80;100.00;95217.78;7400586;19;20908;-92
2023/08/06 01:39:44;;;;;;;6.50;5.90;;;;;;;11.76;100.00;95193.13;7399987;19;20812;-92
2023/08/06 01:42:11;;;;;;;5.20;4.70;;;;;;;12.25;100.00;95266.34;7399627;19;20439;-91
2023/08/06 01:44:39;;;;;;;6.40;5.80;;;;;;;11.89;100.00;95185.72;7396983;19;20452;-91
2023/08/06 01:47:06;;;;;;;6.00;5.27;;;;;;;12.43;100.00;95291.16;7399573;19;20393;-92
2023/08/06 01:49:33;;;;;;;4.97;4.60;;;;;;;12.02;100.00;95234.66;7397532;19;20958;-92
2023/08/06 01:52:00;;;;;;;6.43;5.83;;;;;;;11.40;100.00;95139.00;7393289;19;20763;-92
2023/08/06 01:54:28;;;;;;;5.50;4.90;;;;;;;12.55;100.00;95290.88;7393202;19;20396;-92
2023/08/06 01:56:55;;;;;;;5.70;5.20;;;;;;;12.52;100.00;95288.97;7398224;19;20392;-92
2023/08/06 01:59:22;;;;;;;4.80;4.40;;;;;;;12.07;100.00;95229.81;7396546;19;20928;-92
2023/08/06 02:01:49;;;;;;;5.33;4.83;;;;;;;12.15;100.00;95241.25;7400070;19;20443;-91
2023/08/06 02:04:16;;;;;;;5.33;4.67;;;;;;;12.06;100.00;95230.19;7405385;19;20463;-92
2023/08/06 02:06:43;;;;;;;5.33;4.93;;;;;;;11.36;100.00;95146.91;7401410;19;20928;-92
2023/08/06 02:09:11;;;;;;;6.40;5.80;;;;;;;11.66;100.00;95168.03;7407017;19;20389;-92
2023/08/06 02:11:37;;;;;;;5.50;5.10;;;;;;;12.06;100.00;95211.63;7406302;19;20431;-92
2023/08/06 02:14:04;;;;;;;6.17;5.17;;;;;;;11.84;100.00;95198.16;7406627;19;20468;-92
2023/08/06 02:16:31;;;;;;;5.80;5.40;;;;;;;11.89;100.00;95231.50;7408166;19;20440;-91
2023/08/06 02:18:58;;;;;;;6.07;4.77;;;;;;;12.20;100.00;95254.19;7406206;19;20401;-91
2023/08/06 02:21:25;;;;;;;6.70;5.10;;;;;;;11.37;100.00;95121.97;7406116;19;20399;-91
2023/08/06 02:23:53;;;;;;;6.17;5.67;;;;;;;11.75;100.00;95171.19;7404155;19;20380;-91
2023/08/06 02:26:20;;;;;;;5.00;4.60;;;;;;;11.98;100.00;95208.13;7403124;19;20392;-91
2023/08/06 02:28:47;;;;;;;5.80;5.10;;;;;;;11.18;100.00;95083.16;7405874;19;20761;-91
2023/08/06 02:31:14;;;;;;;5.57;5.00;;;;;;;12.47;100.00;95273.38;7403743;19;20380;-91
2023/08/06 02:33:41;;;;;;;5.73;5.10;;;;;;;12.24;100.00;95217.88;7403144;19;20373;-91
2023/08/06 02:36:08;;;;;;;5.97;5.47;;;;;;;12.20;100.00;95209.13;7402632;19;20409;-91
2023/08/06 02:38:35;;;;;;;6.07;5.57;;;;;;;12.19;100.00;95204.97;7403793;19;20398;-91
2023/08/06 02:41:03;;;;;;;5.87;5.37;;;;;;;12.60;100.00;95261.41;7401990;19;20409;-91
2023/08/06 02:43:31;;;;;;;6.50;5.90;;;;;;;12.47;100.00;95240.81;7405637;19;20397;-92
2023/08/06 02:45:59;;;;;;;5.70;5.20;;;;;;;12.38;100.00;95212.72;7403254;19;20392;-92
2023/08/06 02:48:27;;;;;;;6.53;5.90;;;;;;;12.32;100.00;95200.91;7404129;19;20372;-91
2023/08/06 02:50:59;;;;;;;5.03;4.53;;;;;;;12.24;100.00;95177.34;7402191;19;20456;-91
2023/08/06 02:53:27;;;;;;;5.50;5.07;;;;;;;12.77;100.00;95257.38;7401443;19;20424;-91
2023/08/06 02:55:55;;;;;;;5.43;4.97;;;;;;;11.81;100.00;95106.19;7402077;19;20762;-91
2023/08/06 02:58:29;;;;;;;4.60;4.20;;;;;;;11.98;100.00;95123.38;7403621;19;20455;-92
2023/08/06 03:01:06;;;;;;;6.80;6.00;;;;;;;12.15;100.00;95145.84;7402649;19;20380;-92
2023/08/06 03:03:47;;;;;;;5.30;4.83;;;;;;;11.10;100.00;95002.22;7402302;19;20967;-91
2023/08/06 03:06:20;;;;;;;5.70;5.20;;;;;;;12.41;100.00;95209.31;7403583;19;20388;-91
2023/08/06 03:08:51;;;;;;;4.73;4.33;;;;;;;10.94;100.00;95002.41;7402288;19;20385;-91
2023/08/06 03:11:18;;;;;;;5.83;5.30;;;;;;;12.66;100.00;95262.56;7403646;19;20385;-92
2023/08/06 03:13:47;;;;;;;4.93;4.47;;;;;;;12.18;100.00;95176.94;7401178;19;20389;-92
2023/08/06 03:16:15;;;;;;;8.70;5.23;;;;;;;11.98;100.00;95143.81;7404031;19;20395;-91
2023/08/06 03:18:43;;;;;;;6.17;5.57;;;;;;;11.72;100.00;95126.09;7402799;19;20414;-91
2023/08/06 03:21:10;;;;;;;7.90;5.53;;;;;;;10.45;100.00;94947.09;7401174;19;20389;-92
2023/08/06 03:23:37;;;;;;;5.90;5.40;;;;;;;11.53;100.00;95104.00;7402752;19;20409;-92
2023/08/06 03:26:05;;;;;;;6.83;5.70;;;;;;;11.55;100.00;95119.50;7399615;19;20380;-91
2023/08/06 03:28:32;;;;;;;5.90;5.37;;;;;;;11.07;100.00;95047.88;7401010;19;20400;-91
2023/08/06 03:31:04;;;;;;;11.57;5.77;;;;;;;11.57;100.00;95100.63;7399556;19;20384;-92
2023/08/06 03:33:37;;;;;;;7.17;5.27;;;;;;;11.41;100.00;95080.41;7403682;19;20372;-91
2023/08/06 03:36:09;;;;;;;5.07;4.63;;;;;;;10.38;100.00;94928.50;7404365;19;20381;-91
2023/08/06 03:38:36;;;;;;;5.30;4.80;;;;;;;11.33;100.00;95072.75;7399807;19;20392;-92
2023/08/06 03:41:06;;;;;;;6.47;5.13;;;;;;;11.24;100.00;95057.16;7400151;19;20380;-92
2023/08/06 03:43:33;;;;;;;5.77;5.17;;;;;;;12.12;100.00;95171.19;7398488;19;20388;-93
2023/08/06 03:46:04;;;;;;;4.93;4.50;;;;;;;11.81;100.00;95130.03;7397130;19;20960;-92
2023/08/06 03:48:34;;;;;;;4.43;4.13;;;;;;;10.50;100.00;94928.25;7396995;19;20416;-92
2023/08/06 03:51:01;;;;;;;4.97;4.60;;;;;;;11.57;100.00;95092.66;7398632;19;20718;-92
2023/08/06 03:53:29;;;;;;;4.47;4.07;;;;;;;11.54;100.00;95099.44;7397413;19;20876;-92
2023/08/06 03:55:59;;;;;;;5.30;4.90;;;;;;;10.41;100.00;94917.19;7398428;19;20767;-93
2023/08/06 03:58:28;;;;;;;5.67;4.80;;;;;;;11.20;100.00;95035.19;7395888;19;20388;-92
2023/08/06 04:01:03;;;;;;;5.33;4.83;;;;;;;11.30;100.00;95061.00;7404741;19;20396;-93
2023/08/06 04:03:36;;;;;;;4.83;4.43;;;;;;;10.65;100.00;94966.94;7430419;19;20383;-93
2023/08/06 04:06:04;;;;;;;5.03;4.63;;;;;;;11.14;100.00;95057.81;7430643;19;20369;-94
2023/08/06 04:08:31;;;;;;;4.73;4.40;;;;;;;10.30;100.00;94921.63;7430650;19;20399;-94
2023/08/06 04:10:59;;;;;;;5.30;4.80;;;;;;;10.08;100.00;94900.16;7410323;19;20396;-92
2023/08/06 04:13:26;;;;;;;4.90;4.47;;;;;;;11.91;100.00;95160.41;7394396;19;20440;-92
2023/08/06 04:15:54;;;;;;;5.00;4.60;;;;;;;11.22;100.00;95057.53;7399580;19;20389;-92
2023/08/06 04:18:21;;;;;;;4.50;4.20;;;;;;;10.18;100.00;94914.63;7395033;19;20418;-92
2023/08/06 04:20:49;;;;;;;5.23;4.73;;;;;;;11.41;100.00;95090.25;7395491;19;20806;-93
2023/08/06 04:23:16;;;;;;;4.27;3.93;;;;;;;10.86;100.00;95011.38;7394035;19;20404;-92
2023/08/06 04:25:43;;;;;;;4.60;4.30;;;;;;;11.87;100.00;95169.41;7394149;19;20400;-92
2023/08/06 04:28:12;;;;;;;6.03;5.53;;;;;;;10.98;100.00;95031.56;7395746;19;20412;-92
2023/08/06 04:30:39;;;;;;;4.87;4.47;;;;;;;11.17;100.00;95060.47;7396072;19;20373;-92
2023/08/06 04:33:07;;;;;;;4.37;4.07;;;;;;;11.48;100.00;95090.31;7395160;19;20929;-92
2023/08/06 04:35:34;;;;;;;4.20;3.90;;;;;;;10.80;100.00;94988.25;7396200;19;20938;-92
2023/08/06 04:38:02;;;;;;;4.90;4.40;;;;;;;11.72;100.00;95121.56;7402791;19;20421;-92
2023/08/06 04:40:28;;;;;;;5.43;4.60;;;;;;;10.76;100.00;94967.06;7406766;19;20396;-92
2023/08/06 04:42:56;;;;;;;4.87;4.57;;;;;;;11.25;100.00;95034.88;7395098;19;20434;-92
2023/08/06 04:45:24;;;;;;;4.90;4.50;;;;;;;11.79;100.00;95105.03;7395659;19;20387;-92
2023/08/06 04:47:51;;;;;;;4.30;3.90;;;;;;;11.98;100.00;95138.50;7395598;19;20380;-92
2023/08/06 04:50:19;;;;;;;4.70;4.30;;;;;;;12.64;100.00;95226.94;7399434;19;20375;-92
2023/08/06 04:52:46;;;;;;;4.20;3.90;;;;;;;12.38;100.00;95193.38;7392888;19;20407;-92
2023/08/06 04:55:13;;;;;;;3.47;3.27;;;;;;;11.81;100.00;95108.84;7394602;19;20367;-92
2023/08/06 04:57:40;;;;;;;6.53;4.13;;;;;;;12.17;100.00;95145.50;7392853;19;20405;-92
2023/08/06 05:00:08;;;;;;;4.10;3.70;;;;;;;12.32;100.00;95173.66;7393651;19;20384;-92
2023/08/06 05:02:37;;;;;;;3.93;3.63;;;;;;;12.05;100.00;95128.00;7392527;19;20404;-92
2023/08/06 05:05:05;;;;;;;3.90;3.60;;;;;;;12.59;100.00;95219.34;7394356;19;20384;-92
2023/08/06 05:07:32;;;;;;;5.40;4.33;;;;;;;12.33;100.00;95173.28;7396940;19;20396;-92
2023/08/06 05:09:59;;;;;;;4.70;4.30;;;;;;;12.52;100.00;95208.66;7393407;19;20368;-92
2023/08/06 05:12:26;;;;;;;6.83;4.00;;;;;;;11.27;100.00;95026.56;7392527;19;20817;-92
2023/08/06 05:14:53;;;;;;;4.03;3.73;;;;;;;12.12;100.00;95173.84;7395388;19;20376;-92
2023/08/06 05:17:20;;;;;;;4.70;4.30;;;;;;;11.33;100.00;95038.34;7400299;19;20393;-92
2023/08/06 05:19:47;;;;;;;4.33;3.93;;;;;;;11.64;100.00;95071.59;7401011;19;20364;-92
2023/08/06 05:22:14;;;;;;;4.83;4.43;;;;;;;12.22;100.00;95192.88;7404429;19;20412;-91
2023/08/06 05:24:41;;;;;;;3.50;3.20;;;;;;;11.29;100.00;95069.31;7403975;19;20839;-92
2023/08/06 05:27:10;;;;;;;3.23;3.03;;;;;;;11.66;100.00;95104.50;7411522;19;20401;-92
2023/08/06 05:29:37;;;;;;;5.33;4.20;;;;;;;12.26;100.00;95205.00;7402820;19;20938;-92
2023/08/06 05:32:04;;;;;;;3.87;3.57;;;;;;;12.17;100.00;95196.63;7398877;19;20396;-91
2023/08/06 05:34:32;;;;;;;3.67;3.37;;;;;;;12.49;100.00;95241.22;7396479;19;20412;-92
2023/08/06 05:36:58;;;;;;;3.60;3.40;;;;;;;11.90;100.00;95169.47;7392273;19;20385;-91
2023/08/06 05:39:25;;;;;;;3.87;3.57;;;;;;;10.87;100.00;94998.94;7394338;19;20392;-91
2023/08/06 05:41:52;;;;;;;3.20;2.90;;;;;;;10.91;100.00;95020.88;7395443;19;20431;-91
2023/08/06 05:44:20;;;;;;;3.57;3.27;;;;;;;12.02;100.00;95190.41;7392572;19;20373;-91
2023/08/06 05:46:47;;;;;;;3.40;3.10;;;;;;;11.39;100.00;95119.72;7396706;19;20385;-91
2023/08/06 05:49:14;;;;;;;3.13;2.80;;;;;;;11.78;100.00;95156.44;7393214;19;20990;-91
2023/08/06 05:51:41;;;;;;;3.60;3.30;;;;;;;11.83;100.00;95159.56;7391931;19;20404;-91
2023/08/06 05:54:11;;;;;;;4.07;3.67;;;;;;;11.43;100.00;95083.44;7393098;19;20476;-92
2023/08/06 05:56:53;;;;;;;3.40;3.10;;;;;;;11.81;100.00;95148.56;7398630;19;20393;-92
2023/08/06 05:59:20;;;;;;;2.90;2.70;;;;;;;10.80;100.00;94994.31;7395059;19;20388;-92
2023/08/06 06:01:52;;;;;;;3.07;2.70;;;;;;;11.17;100.00;95033.28;7396485;19;20422;-92
2023/08/06 06:04:21;;;;;;;3.20;2.97;;;;;;;11.24;100.00;95036.00;7393785;19;20900;-92
2023/08/06 06:06:48;;;;;;;3.00;2.80;;;;;;;10.60;100.00;94962.00;7394260;19;20426;-92
2023/08/06 06:09:17;;;;;;;4.83;3.10;;;;;;;11.17;100.00;95049.13;7407137;19;20392;-91
2023/08/06 06:11:50;;;;;;;3.20;2.90;;;;;;;9.84;100.00;94860.25;7396199;19;20408;-92
2023/08/06 06:14:26;;;;;;;3.10;2.90;;;;;;;10.08;100.00;94881.69;7397232;19;20384;-92
2023/08/06 06:17:00;;;;;;;2.60;2.40;;;;;;;10.93;100.00;95000.88;7392703;19;21091;-92
2023/08/06 06:19:30;;;;;;;3.40;2.87;;;;;;;9.97;100.00;94853.63;7410566;19;20436;-92
2023/08/06 06:22:15;;;;;;;3.80;2.70;;;;;;;10.42;100.00;94939.88;7407590;19;20459;-92
2023/08/06 06:24:44;;;;;;;3.27;2.40;;;;;;;9.93;100.00;94864.16;7404078;19;20387;-92
2023/08/06 06:27:21;;;;;;;5.90;5.40;;;;;;;11.32;100.00;95055.34;7397279;19;20929;-92
2023/08/06 06:29:55;;;;;;;3.00;2.80;;;;;;;11.14;100.00;95026.81;7394417;19;20388;-92
2023/08/06 06:32:37;;;;;;;4.17;2.97;;;;;;;10.98;100.00;95004.34;7394817;19;20750;-92
2023/08/06 06:35:50;;;;;;;2.33;2.13;;;;;;;10.14;100.00;94858.34;7395647;19;20392;-92
2023/08/06 06:39:41;;;;;;;3.10;2.80;;;;;;;12.65;100.00;95213.31;7391092;19;20388;-92
2023/08/06 06:42:46;;;;;;;2.70;2.50;;;;;;;11.98;100.00;95099.53;7392078;19;20738;-91
2023/08/06 06:45:14;;;;;;;3.17;2.53;;;;;;;12.67;100.00;95187.19;7394867;19;20395;-91
2023/08/06 06:47:41;;;;;;;3.30;3.00;;;;;;;12.48;100.00;95129.09;7397165;19;20422;-91
2023/08/06 06:50:08;;;;;;;2.77;2.53;;;;;;;12.85;100.00;95162.72;7399750;19;20472;-91
2023/08/06 06:52:35;;;;;;;10.70;4.43;;;;;;;12.63;100.00;95122.78;7407449;19;20480;-91
2023/08/06 06:55:02;;;;;;;4.10;3.10;;;;;;;13.10;100.00;95126.47;7405832;19;20387;-91
2023/08/06 06:57:29;;;;;;;3.03;2.73;;;;;;;12.94;100.00;95094.91;7404825;19;20414;-92
2023/08/06 06:59:56;;;;;;;3.17;2.83;;;;;;;13.70;100.00;95216.28;7410060;19;20390;-92
2023/08/06 07:02:24;;;;;;;2.80;2.60;;;;;;;13.58;100.00;95190.06;7400675;19;20426;-91
2023/08/06 07:04:51;;;;;;;2.60;2.40;;;;;;;13.48;100.00;95182.78;7407621;19;20379;-92
2023/08/06 07:07:18;;;;;;;2.80;2.60;;;;;;;13.59;100.00;95176.41;7399566;19;20481;-92
2023/08/06 07:09:45;;;;;;;2.47;2.27;;;;;;;13.90;100.00;95204.25;7401556;19;20363;-92
2023/08/06 07:12:12;;;;;;;2.83;2.63;;;;;;;14.19;100.00;95218.38;7399275;19;20835;-92
2023/08/06 07:14:41;;;;;;;3.53;2.50;;;;;;;13.81;100.00;95211.78;7403190;19;20376;-91
2023/08/06 07:17:08;;;;;;;3.20;2.50;;;;;;;13.56;100.00;95203.72;7402376;19;20388;-91
2023/08/06 07:19:35;;;;;;;3.00;2.63;;;;;;;13.28;100.00;95175.13;7402549;19;20460;-91
2023/08/06 07:22:02;;;;;;;2.73;2.53;;;;;;;13.19;100.00;95099.63;7401969;19;20393;-92
2023/08/06 07:24:29;;;;;;;5.40;2.80;;;;;;;14.09;100.00;95213.78;7407800;19;20384;-91
2023/08/06 07:26:56;;;;;;;3.50;3.20;;;;;;;13.60;100.00;95167.28;7403888;19;20944;-91
2023/08/06 07:29:23;;;;;;;3.30;2.80;;;;;;;13.54;100.00;95147.56;7403602;19;20400;-91
2023/08/06 07:31:50;;;;;;;5.83;2.90;;;;;;;13.92;100.00;95150.72;7400392;19;20412;-92
2023/08/06 07:34:18;;;;;;;3.10;2.90;;;;;;;14.71;100.00;95215.44;7401755;19;20369;-92
2023/08/06 07:36:46;;;;;;;2.80;2.60;;;;;;;14.52;100.00;95208.56;7402266;19;20381;-91
2023/08/06 07:39:13;;;;;;;2.60;2.27;;;;;;;14.33;100.00;95175.09;7405652;19;20381;-91
2023/08/06 07:41:41;;;;;;;5.57;2.93;;;;;;;14.49;100.00;95164.88;7402680;19;20413;-91
2023/08/06 07:44:08;;;;;;;4.00;3.53;;;;;;;14.94;100.00;95164.47;7399612;19;20794;-92
2023/08/06 07:46:35;;;;;;;4.53;2.77;;;;;;;14.70;100.00;95211.25;7401590;19;20376;-92
2023/08/06 07:49:02;;;;;;;2.90;2.70;;;;;;;14.41;100.00;95150.00;7402131;19;20360;-92
2023/08/06 07:51:29;;;;;;;2.63;2.43;;;;;;;14.59;100.00;95202.50;7404908;19;20419;-91
2023/08/06 07:53:56;;;;;;;3.53;2.87;;;;;;;13.94;100.00;95127.19;7403714;19;20721;-91
2023/08/06 07:56:23;;;;;;;3.53;3.07;;;;;;;14.19;100.00;95162.53;7402600;19;20388;-91
2023/08/06 07:58:51;;;;;;;5.27;2.90;;;;;;;14.17;100.00;95148.88;7398603;19;20927;-91
2023/08/06 08:01:20;;;;;;;4.33;3.23;;;;;;;13.45;100.00;95045.47;7402835;19;20380;-91
2023/08/06 08:03:48;;;;;;;2.77;2.57;;;;;;;15.15;100.00;95198.28;7409880;19;20381;-92
2023/08/06 08:06:15;;;;;;;4.27;3.20;;;;;;;15.26;100.00;95205.13;7415649;19;20409;-91
2023/08/06 08:08:42;;;;;;;3.10;2.87;;;;;;;13.88;100.00;94990.50;7419133;19;20389;-92
2023/08/06 08:11:09;;;;;;;3.57;3.07;;;;;;;13.80;100.00;94979.13;7413439;19;20401;-92
2023/08/06 08:13:37;;;;;;;3.17;2.83;;;;;;;14.32;100.00;95061.91;7409008;19;20365;-91
2023/08/06 08:16:05;;;;;;;3.33;2.43;;;;;;;14.20;100.00;95092.28;7413711;19;20389;-91
2023/08/06 08:18:32;;;;;;;3.23;2.93;;;;;;;14.77;100.00;95190.72;7404819;19;20381;-91
2023/08/06 08:20:59;;;;;;;5.90;3.00;;;;;;;14.61;100.00;95145.13;7409714;19;20388;-91
2023/08/06 08:23:26;;;;;;;3.90;2.47;;;;;;;14.72;100.00;95169.81;7409591;19;20401;-91
2023/08/06 08:25:53;;;;;;;3.43;2.70;;;;;;;13.53;100.00;95015.91;7411860;19;20395;-91
2023/08/06 08:28:20;;;;;;;4.30;4.00;;;;;;;14.03;100.00;95079.75;7406818;19;20459;-92
2023/08/06 08:30:47;;;;;;;9.13;6.50;;;;;;;14.10;100.00;95100.25;7408095;19;20384;-92
2023/08/06 08:33:14;;;;;;;4.80;2.70;;;;;;;13.68;100.00;95050.47;7405178;19;20444;-91
2023/08/06 08:35:41;;;;;;;3.97;2.60;;;;;;;13.90;100.00;95083.91;7400956;19;20738;-91
2023/08/06 08:38:08;;;;;;;2.60;2.40;;;;;;;13.87;100.00;95031.50;7398222;19;20361;-91
2023/08/06 08:40:46;;;;;;;8.63;2.83;;;;;;;14.75;100.00;95107.09;7398692;19;20392;-91
2023/08/06 08:43:14;;;;;;;2.93;2.30;;;;;;;15.05;100.00;95127.94;7396305;19;20424;-91
2023/08/06 08:45:42;;;;;;;6.13;3.00;;;;;;;15.16;100.00;95119.94;7396787;19;20404;-91
2023/08/06 08:48:13;;;;;;;3.00;2.67;;;;;;;15.36;100.00;95171.63;7397587;19;20963;-91
2023/08/06 08:50:44;;;;;;;4.17;2.53;;;;;;;15.19;100.00;95172.41;7396583;19;20388;-91
2023/08/06 08:53:13;;;;;;;2.77;2.20;;;;;;;14.75;100.00;95155.75;7397573;19;20476;-91
2023/08/06 08:55:41;;;;;;;3.73;2.30;;;;;;;14.74;100.00;95169.44;7397840;19;20348;-91
2023/08/06 08:58:08;;;;;;;2.30;2.13;;;;;;;13.69;100.00;95033.41;7399361;19;20396;-91
2023/08/06 09:00:35;;;;;;;2.90;2.20;;;;;;;13.75;100.00;95087.66;7396897;19;20713;-92
2023/08/06 09:03:06;;;;;;;2.50;2.30;;;;;;;13.67;100.00;95094.09;7393509;19;20764;-91
2023/08/06 09:05:34;;;;;;;2.60;2.40;;;;;;;13.70;100.00;95128.63;7398239;19;20400;-92
2023/08/06 09:08:05;;;;;;;2.40;2.20;;;;;;;14.09;100.00;95157.19;7399089;19;20710;-91
2023/08/06 09:10:33;;;;;;;3.53;2.43;;;;;;;14.11;100.00;95115.81;7397910;19;20767;-92
2023/08/06 09:13:01;;;;;;;3.70;2.60;;;;;;;13.48;100.00;95020.81;7403366;19;20734;-91
2023/08/06 09:15:29;;;;;;;3.27;2.30;;;;;;;13.72;100.00;95027.31;7403639;19;20412;-91
2023/08/06 09:17:56;;;;;;;2.40;1.90;;;;;;;14.26;100.00;95131.78;7405987;19;20381;-91
2023/08/06 09:20:23;;;;;;;2.20;2.00;;;;;;;13.76;100.00;95083.88;7397953;19;20384;-91
2023/08/06 09:22:53;;;;;;;2.50;2.30;;;;;;;14.09;100.00;95136.69;7401565;19;20484;-91
2023/08/06 09:25:25;;;;;;;1.87;1.77;;;;;;;14.00;100.00;95088.44;7402923;19;20394;-91
2023/08/06 09:27:52;;;;;;;1.90;1.80;;;;;;;14.28;100.00;95138.22;7397538;19;20381;-91
2023/08/06 09:30:37;;;;;;;2.30;2.00;;;;;;;14.37;100.00;95161.78;7401088;19;20453;-91
2023/08/06 09:33:10;;;;;;;7.03;2.03;;;;;;;14.56;100.00;95128.78;7395126;19;20769;-91
2023/08/06 09:35:37;;;;;;;3.20;2.20;;;;;;;15.11;100.00;95154.94;7397853;19;20385;-92
2023/08/06 09:38:09;;;;;;;2.13;1.93;;;;;;;14.74;100.00;95081.63;7395320;19;20463;-92
2023/08/06 09:40:37;;;;;;;2.87;1.90;;;;;;;15.02;100.00;95099.44;7395916;19;20793;-91
2023/08/06 09:43:05;;;;;;;2.13;1.90;;;;;;;15.13;100.00;95152.66;7393978;19;20421;-91
2023/08/06 09:45:37;;;;;;;1.80;1.70;;;;;;;14.56;100.00;95094.97;7413883;19;20464;-90
2023/08/06 09:48:06;;;;;;;3.60;2.30;;;;;;;14.71;100.00;95101.78;7411450;19;20375;-89
2023/08/06 09:50:36;;;;;;;2.10;1.63;;;;;;;14.86;100.00;95149.66;7397798;19;20892;-89
2023/08/06 09:53:10;;;;;;;3.57;2.00;;;;;;;14.95;100.00;95116.16;7395100;19;20794;-90
2023/08/06 09:55:38;;;;;;;3.43;2.03;;;;;;;14.88;100.00;95118.09;7395971;19;20901;-89
2023/08/06 09:58:06;;;;;;;1.90;1.80;;;;;;;15.11;100.00;95123.00;7422337;19;20420;-89
2023/08/06 10:00:35;;;;;;;3.20;1.87;;;;;;;14.93;100.00;95091.09;7426471;19;20388;-90
2023/08/06 10:03:06;;;;;;;1.63;1.53;;;;;;;15.20;100.00;95118.78;7429298;19;20413;-90
2023/08/06 10:05:35;;;;;;;3.20;1.80;;;;;;;15.04;100.00;95081.94;7416636;19;20405;-89
2023/08/06 10:08:05;;;;;;;1.40;1.30;;;;;;;15.07;100.00;95117.66;7407090;19;20365;-89
2023/08/06 10:10:35;;;;;;;1.60;1.33;;;;;;;14.30;100.00;95124.56;7408906;19;20468;-89
2023/08/06 10:13:05;;;;;;;1.67;0.73;;;;;;;12.99;100.00;95012.34;7410871;19;20420;-88
2023/08/06 10:15:33;;;;;;;1.60;1.20;;;;;;;13.34;100.00;95124.31;7414422;19;20389;-89
2023/08/06 10:18:01;;;;;;;1.07;0.97;;;;;;;13.18;100.00;95141.31;7413506;19;20389;-90
2023/08/06 10:20:35;;;;;;;1.10;1.00;;;;;;;13.15;100.00;95142.03;7415294;19;20403;-90
2023/08/06 10:23:05;;;;;;;4.33;2.30;;;;;;;12.38;100.00;95013.16;7405913;19;20420;-90
2023/08/06 10:25:34;;;;;;;1.40;1.30;;;;;;;12.83;100.00;95058.88;7409251;19;20391;-90
2023/08/06 10:28:08;;;;;;;1.30;1.20;;;;;;;13.30;100.00;95100.44;7408138;19;20505;-90
2023/08/06 10:30:43;;;;;;;1.40;1.30;;;;;;;13.69;100.00;95126.34;7416863;19;20368;-90
2023/08/06 10:33:11;;;;;;;1.20;1.10;;;;;;;13.20;100.00;95030.22;7416971;19;20424;-90
2023/08/06 10:35:50;;;;;;;2.30;1.60;;;;;;;13.92;100.00;95112.75;7412996;19;20413;-90
2023/08/06 10:38:25;;;;;;;1.63;1.30;;;;;;;13.55;100.00;95034.13;7412177;19;20400;-90
2023/08/06 10:40:52;;;;;;;1.80;1.13;;;;;;;14.31;100.00;95110.16;7402799;19;20374;-90
2023/08/06 10:43:27;;;;;;;1.47;1.37;;;;;;;14.05;100.00;95066.84;7417426;19;20437;-90
2023/08/06 10:45:55;;;;;;;2.30;1.53;;;;;;;14.40;100.00;95075.94;7402519;19;20396;-90
2023/08/06 10:48:49;;;;;;;2.53;2.07;;;;;;;15.06;100.00;95113.47;7412447;19;20357;-90
2023/08/06 10:51:16;;;;;;;2.60;1.93;;;;;;;14.86;100.00;95093.78;7404321;19;20404;-90
2023/08/06 10:53:48;;;;;;;3.27;1.23;;;;;;;15.13;100.00;95118.81;7408874;19;20948;-90
2023/08/06 10:56:16;;;;;;;1.23;1.10;;;;;;;14.90;100.00;95049.28;7403195;19;20941;-90
2023/08/06 10:58:47;;;;;;;1.83;1.30;;;;;;;15.33;100.00;95069.25;7405505;19;20369;-90
2023/08/06 11:01:15;;;;;;;3.63;0.90;;;;;;;15.96;100.00;95102.09;7405844;19;20381;-90
2023/08/06 11:03:44;;;;;;;1.20;1.00;;;;;;;15.66;100.00;95048.59;7404903;19;20373;-90
2023/08/06 11:06:18;;;;;;;2.90;1.00;;;;;;;16.05;100.00;95108.91;7405694;19;20360;-90
2023/08/06 11:08:55;;;;;;;1.20;1.10;;;;;;;16.26;100.00;95103.41;7405143;19;20436;-90
2023/08/06 11:11:23;;;;;;;2.50;0.80;;;;;;;15.97;100.00;95102.84;7406767;19;20383;-90
2023/08/06 11:13:52;;;;;;;0.80;0.70;;;;;;;13.44;100.00;94813.75;7403052;19;20381;-90
2023/08/06 11:16:24;;;;;;;1.10;0.80;;;;;;;13.50;100.00;94819.44;7401029;19;20384;-90
2023/08/06 11:18:52;;;;;;;1.67;0.83;;;;;;;15.56;100.00;95118.66;7406930;19;20381;-90
2023/08/06 11:21:20;;;;;;;1.10;0.90;;;;;;;14.02;100.00;94931.28;7411743;19;21012;-90
2023/08/06 11:23:48;;;;;;;1.40;1.30;;;;;;;14.90;100.00;95071.31;7401257;19;20400;-90
2023/08/06 11:26:23;;;;;;;3.60;1.20;;;;;;;14.97;100.00;95110.47;7401734;19;20392;-90
2023/08/06 11:28:50;;;;;;;2.83;2.63;;;;;;;13.67;100.00;94929.44;7408527;19;20364;-90
2023/08/06 11:31:22;;;;;;;1.70;1.60;;;;;;;14.32;100.00;95032.66;7408051;19;20396;-90
2023/08/06 11:33:55;;;;;;;1.20;1.10;;;;;;;14.26;100.00;95062.66;7399529;19;20381;-91
2023/08/06 11:36:33;;;;;;;1.83;1.73;;;;;;;14.28;100.00;95053.16;7412107;19;20438;-91